sensor_id;sensor_type;location;lat;lon;timestamp;temperature;humidity
3770;DHT22;1900;48.890;9.190;2023-04-29T00:02:09;18.80;61.50
3770;DHT22;1900;48.890;9.190;2023-04-29T00:04:35;18.80;61.50
3770;DHT22;1900;48.890;9.190;2023-04-29T00:07:00;18.80;61.50
3770;DHT22;1900;48.890;9.190;2023-04-29T00:09:26;18.80;61.50
3770;DHT22;1900;48.890;9.190;2023-04-29T00:11:52;18.80;61.50
3770;DHT22;1900;48.890;9.190;2023-04-29T00:14:17;18.80;61.50
3770;DHT22;1900;48.890;9.190;2023-04-29T00:16:43;18.80;61.50
3770;DHT22;1900;48.890;9.190;2023-04-29T00:19:09;18.80;61.50
3770;DHT22;1900;48.890;9.190;2023-04-29T00:21:34;18.80;61.60
3770;DHT22;1900;48.890;9.190;2023-04-29T00:24:00;18.80;61.60
3770;DHT22;1900;48.890;9.190;2023-04-29T00:26:26;18.70;61.50
3770;DHT22;1900;48.890;9.190;2023-04-29T00:28:53;18.70;61.50
3770;DHT22;1900;48.890;9.190;2023-04-29T00:31:19;18.70;61.50
3770;DHT22;1900;48.890;9.190;2023-04-29T00:33:46;18.80;61.70
3770;DHT22;1900;48.890;9.190;2023-04-29T00:36:11;18.80;61.70
3770;DHT22;1900;48.890;9.190;2023-04-29T00:38:37;18.80;61.70
3770;DHT22;1900;48.890;9.190;2023-04-29T00:41:03;18.70;61.60
3770;DHT22;1900;48.890;9.190;2023-04-29T00:43:29;18.70;61.60
3770;DHT22;1900;48.890;9.190;2023-04-29T00:45:54;18.80;61.80
3770;DHT22;1900;48.890;9.190;2023-04-29T00:48:20;18.70;61.70
3770;DHT22;1900;48.890;9.190;2023-04-29T00:50:46;18.70;61.70
3770;DHT22;1900;48.890;9.190;2023-04-29T00:53:12;18.80;62.40
3770;DHT22;1900;48.890;9.190;2023-04-29T00:55:40;18.70;61.60
3770;DHT22;1900;48.890;9.190;2023-04-29T00:58:06;18.70;61.60
3770;DHT22;1900;48.890;9.190;2023-04-29T01:00:34;18.70;61.60
3770;DHT22;1900;48.890;9.190;2023-04-29T01:03:00;18.70;61.50
3770;DHT22;1900;48.890;9.190;2023-04-29T01:05:26;18.70;61.50
3770;DHT22;1900;48.890;9.190;2023-04-29T01:08:23;18.60;61.40
3770;DHT22;1900;48.890;9.190;2023-04-29T01:10:50;18.60;61.50
3770;DHT22;1900;48.890;9.190;2023-04-29T01:13:32;18.60;61.40
3770;DHT22;1900;48.890;9.190;2023-04-29T01:16:13;18.50;61.40
3770;DHT22;1900;48.890;9.190;2023-04-29T01:18:45;18.50;61.40
3770;DHT22;1900;48.890;9.190;2023-04-29T01:21:16;18.50;61.40
3770;DHT22;1900;48.890;9.190;2023-04-29T01:23:42;18.40;61.30
3770;DHT22;1900;48.890;9.190;2023-04-29T01:26:10;18.50;61.50
3770;DHT22;1900;48.890;9.190;2023-04-29T01:28:50;18.50;61.50
3770;DHT22;1900;48.890;9.190;2023-04-29T01:31:37;18.40;61.40
3770;DHT22;1900;48.890;9.190;2023-04-29T01:36:54;18.40;61.50
3770;DHT22;1900;48.890;9.190;2023-04-29T01:42:51;18.40;61.60
3770;DHT22;1900;48.890;9.190;2023-04-29T01:45:21;18.40;61.60
3770;DHT22;1900;48.890;9.190;2023-04-29T01:47:48;18.30;61.40
3770;DHT22;1900;48.890;9.190;2023-04-29T01:50:15;18.30;61.30
3770;DHT22;1900;48.890;9.190;2023-04-29T01:52:41;18.30;61.30
3770;DHT22;1900;48.890;9.190;2023-04-29T01:55:07;18.30;61.30
3770;DHT22;1900;48.890;9.190;2023-04-29T01:57:51;18.30;61.30
3770;DHT22;1900;48.890;9.190;2023-04-29T02:00:42;18.20;61.20
3770;DHT22;1900;48.890;9.190;2023-04-29T02:03:08;18.20;61.30
3770;DHT22;1900;48.890;9.190;2023-04-29T02:05:39;18.20;61.30
3770;DHT22;1900;48.890;9.190;2023-04-29T02:08:05;18.20;61.30
3770;DHT22;1900;48.890;9.190;2023-04-29T02:10:35;18.20;61.40
3770;DHT22;1900;48.890;9.190;2023-04-29T02:13:18;18.10;61.30
3770;DHT22;1900;48.890;9.190;2023-04-29T02:15:44;18.10;61.30
3770;DHT22;1900;48.890;9.190;2023-04-29T02:18:09;18.10;61.30
3770;DHT22;1900;48.890;9.190;2023-04-29T02:20:35;18.10;61.30
3770;DHT22;1900;48.890;9.190;2023-04-29T02:23:04;18.10;61.30
3770;DHT22;1900;48.890;9.190;2023-04-29T02:25:29;18.10;61.30
3770;DHT22;1900;48.890;9.190;2023-04-29T02:27:57;18.00;61.20
3770;DHT22;1900;48.890;9.190;2023-04-29T02:30:23;18.00;61.20
3770;DHT22;1900;48.890;9.190;2023-04-29T02:32:49;18.00;61.10
3770;DHT22;1900;48.890;9.190;2023-04-29T02:35:14;17.90;61.00
3770;DHT22;1900;48.890;9.190;2023-04-29T02:37:40;17.90;61.00
3770;DHT22;1900;48.890;9.190;2023-04-29T02:40:07;17.90;61.00
3770;DHT22;1900;48.890;9.190;2023-04-29T02:42:33;17.90;61.00
3770;DHT22;1900;48.890;9.190;2023-04-29T02:45:00;17.90;61.10
3770;DHT22;1900;48.890;9.190;2023-04-29T02:47:25;17.90;61.10
3770;DHT22;1900;48.890;9.190;2023-04-29T02:49:51;17.80;61.00
3770;DHT22;1900;48.890;9.190;2023-04-29T02:52:17;17.80;61.00
3770;DHT22;1900;48.890;9.190;2023-04-29T02:54:44;17.80;61.00
3770;DHT22;1900;48.890;9.190;2023-04-29T02:57:09;17.80;61.10
3770;DHT22;1900;48.890;9.190;2023-04-29T02:59:35;17.70;61.00
3770;DHT22;1900;48.890;9.190;2023-04-29T03:02:02;17.70;61.00
3770;DHT22;1900;48.890;9.190;2023-04-29T03:04:28;17.70;61.00
3770;DHT22;1900;48.890;9.190;2023-04-29T03:06:54;17.70;61.00
3770;DHT22;1900;48.890;9.190;2023-04-29T03:09:25;17.70;61.00
3770;DHT22;1900;48.890;9.190;2023-04-29T03:11:51;17.60;60.90
3770;DHT22;1900;48.890;9.190;2023-04-29T03:14:18;17.60;61.00
3770;DHT22;1900;48.890;9.190;2023-04-29T03:16:43;17.60;61.00
3770;DHT22;1900;48.890;9.190;2023-04-29T03:19:09;17.60;61.00
3770;DHT22;1900;48.890;9.190;2023-04-29T03:21:35;17.60;61.00
3770;DHT22;1900;48.890;9.190;2023-04-29T03:24:00;17.60;61.00
3770;DHT22;1900;48.890;9.190;2023-04-29T03:26:31;17.50;60.90
3770;DHT22;1900;48.890;9.190;2023-04-29T03:28:57;17.50;60.90
3770;DHT22;1900;48.890;9.190;2023-04-29T03:31:24;17.50;60.90
3770;DHT22;1900;48.890;9.190;2023-04-29T03:33:51;17.50;60.90
3770;DHT22;1900;48.890;9.190;2023-04-29T03:36:18;17.50;60.90
3770;DHT22;1900;48.890;9.190;2023-04-29T03:38:57;17.40;60.90
3770;DHT22;1900;48.890;9.190;2023-04-29T03:41:23;17.40;60.90
3770;DHT22;1900;48.890;9.190;2023-04-29T03:43:49;17.40;61.00
3770;DHT22;1900;48.890;9.190;2023-04-29T03:46:15;17.40;61.00
3770;DHT22;1900;48.890;9.190;2023-04-29T03:48:41;17.40;61.00
3770;DHT22;1900;48.890;9.190;2023-04-29T03:51:07;17.30;60.90
3770;DHT22;1900;48.890;9.190;2023-04-29T03:53:34;17.30;60.90
3770;DHT22;1900;48.890;9.190;2023-04-29T03:56:03;17.30;60.90
3770;DHT22;1900;48.890;9.190;2023-04-29T03:58:29;17.30;60.90
3770;DHT22;1900;48.890;9.190;2023-04-29T04:00:54;17.30;61.00
3770;DHT22;1900;48.890;9.190;2023-04-29T04:03:25;17.30;61.00
3770;DHT22;1900;48.890;9.190;2023-04-29T04:05:55;17.30;61.00
3770;DHT22;1900;48.890;9.190;2023-04-29T04:08:20;17.30;61.10
3770;DHT22;1900;48.890;9.190;2023-04-29T04:11:03;17.30;61.10
3770;DHT22;1900;48.890;9.190;2023-04-29T04:13:34;17.30;61.20
3770;DHT22;1900;48.890;9.190;2023-04-29T04:16:00;17.30;61.20
3770;DHT22;1900;48.890;9.190;2023-04-29T04:18:26;17.30;61.30
3770;DHT22;1900;48.890;9.190;2023-04-29T04:20:52;17.30;61.40
3770;DHT22;1900;48.890;9.190;2023-04-29T04:23:17;17.30;61.40
3770;DHT22;1900;48.890;9.190;2023-04-29T04:25:47;17.30;61.40
3770;DHT22;1900;48.890;9.190;2023-04-29T04:28:31;17.30;61.50
3770;DHT22;1900;48.890;9.190;2023-04-29T04:31:02;17.30;61.50
3770;DHT22;1900;48.890;9.190;2023-04-29T04:33:29;17.40;61.60
3770;DHT22;1900;48.890;9.190;2023-04-29T04:35:55;17.40;61.60
3770;DHT22;1900;48.890;9.190;2023-04-29T04:38:21;17.40;61.60
3770;DHT22;1900;48.890;9.190;2023-04-29T04:40:49;17.40;61.70
3770;DHT22;1900;48.890;9.190;2023-04-29T04:43:41;17.40;61.70
3770;DHT22;1900;48.890;9.190;2023-04-29T04:46:14;17.40;61.70
3770;DHT22;1900;48.890;9.190;2023-04-29T04:48:51;17.40;61.80
3770;DHT22;1900;48.890;9.190;2023-04-29T04:51:18;17.40;61.90
3770;DHT22;1900;48.890;9.190;2023-04-29T04:53:44;17.40;62.00
3770;DHT22;1900;48.890;9.190;2023-04-29T04:56:21;17.50;62.00
3770;DHT22;1900;48.890;9.190;2023-04-29T04:58:47;17.50;62.00
3770;DHT22;1900;48.890;9.190;2023-04-29T05:01:14;17.50;62.00
3770;DHT22;1900;48.890;9.190;2023-04-29T05:03:39;17.50;62.10
3770;DHT22;1900;48.890;9.190;2023-04-29T05:06:05;17.50;62.10
3770;DHT22;1900;48.890;9.190;2023-04-29T05:08:31;17.50;62.10
3770;DHT22;1900;48.890;9.190;2023-04-29T05:10:59;17.50;62.10
3770;DHT22;1900;48.890;9.190;2023-04-29T05:13:25;17.50;62.20
3770;DHT22;1900;48.890;9.190;2023-04-29T05:15:51;17.50;62.40
3770;DHT22;1900;48.890;9.190;2023-04-29T05:18:21;17.50;62.30
3770;DHT22;1900;48.890;9.190;2023-04-29T05:20:49;17.50;62.50
3770;DHT22;1900;48.890;9.190;2023-04-29T05:23:15;17.60;62.50
3770;DHT22;1900;48.890;9.190;2023-04-29T05:25:43;17.60;62.50
3770;DHT22;1900;48.890;9.190;2023-04-29T05:28:09;17.60;62.70
3770;DHT22;1900;48.890;9.190;2023-04-29T05:30:38;17.60;62.60
3770;DHT22;1900;48.890;9.190;2023-04-29T05:33:04;17.60;62.70
3770;DHT22;1900;48.890;9.190;2023-04-29T05:35:30;17.70;62.70
3770;DHT22;1900;48.890;9.190;2023-04-29T05:37:57;17.70;62.80
3770;DHT22;1900;48.890;9.190;2023-04-29T05:40:36;17.70;62.80
3770;DHT22;1900;48.890;9.190;2023-04-29T05:43:20;17.70;62.90
3770;DHT22;1900;48.890;9.190;2023-04-29T05:45:46;17.70;63.00
3770;DHT22;1900;48.890;9.190;2023-04-29T05:48:12;17.70;63.30
3770;DHT22;1900;48.890;9.190;2023-04-29T05:50:38;17.70;63.00
3770;DHT22;1900;48.890;9.190;2023-04-29T05:53:03;17.80;63.00
3770;DHT22;1900;48.890;9.190;2023-04-29T05:55:30;17.80;63.00
3770;DHT22;1900;48.890;9.190;2023-04-29T05:57:55;17.80;63.00
3770;DHT22;1900;48.890;9.190;2023-04-29T06:00:21;17.80;63.10
3770;DHT22;1900;48.890;9.190;2023-04-29T06:02:48;17.80;63.00
3770;DHT22;1900;48.890;9.190;2023-04-29T06:05:15;17.80;63.20
3770;DHT22;1900;48.890;9.190;2023-04-29T06:08:00;17.80;63.10
3770;DHT22;1900;48.890;9.190;2023-04-29T06:10:42;17.80;63.30
3770;DHT22;1900;48.890;9.190;2023-04-29T06:13:09;17.80;63.20
3770;DHT22;1900;48.890;9.190;2023-04-29T06:15:35;17.80;64.10
3770;DHT22;1900;48.890;9.190;2023-04-29T06:18:00;17.80;63.40
3770;DHT22;1900;48.890;9.190;2023-04-29T06:20:26;17.80;63.40
3770;DHT22;1900;48.890;9.190;2023-04-29T06:22:52;17.90;63.70
3770;DHT22;1900;48.890;9.190;2023-04-29T06:25:18;17.90;64.20
3770;DHT22;1900;48.890;9.190;2023-04-29T06:27:48;17.90;63.60
3770;DHT22;1900;48.890;9.190;2023-04-29T06:30:16;17.90;63.60
3770;DHT22;1900;48.890;9.190;2023-04-29T06:32:43;17.90;64.30
3770;DHT22;1900;48.890;9.190;2023-04-29T06:35:09;17.90;63.70
3770;DHT22;1900;48.890;9.190;2023-04-29T06:37:55;18.00;63.90
3770;DHT22;1900;48.890;9.190;2023-04-29T06:40:47;18.00;63.90
3770;DHT22;1900;48.890;9.190;2023-04-29T06:43:32;18.10;64.30
3770;DHT22;1900;48.890;9.190;2023-04-29T06:46:18;18.10;64.10
3770;DHT22;1900;48.890;9.190;2023-04-29T06:48:53;18.10;64.40
3770;DHT22;1900;48.890;9.190;2023-04-29T06:51:19;18.10;64.40
3770;DHT22;1900;48.890;9.190;2023-04-29T06:53:45;18.20;64.30
3770;DHT22;1900;48.890;9.190;2023-04-29T06:56:12;18.20;64.40
3770;DHT22;1900;48.890;9.190;2023-04-29T06:58:38;18.20;64.50
3770;DHT22;1900;48.890;9.190;2023-04-29T07:01:06;18.30;64.50
3770;DHT22;1900;48.890;9.190;2023-04-29T07:03:33;18.30;64.60
3770;DHT22;1900;48.890;9.190;2023-04-29T07:05:58;18.30;64.50
3770;DHT22;1900;48.890;9.190;2023-04-29T07:08:24;18.30;64.30
3770;DHT22;1900;48.890;9.190;2023-04-29T07:10:56;18.30;64.30
3770;DHT22;1900;48.890;9.190;2023-04-29T07:13:23;18.40;64.50
3770;DHT22;1900;48.890;9.190;2023-04-29T07:15:50;18.40;64.70
3770;DHT22;1900;48.890;9.190;2023-04-29T07:18:16;18.40;64.70
3770;DHT22;1900;48.890;9.190;2023-04-29T07:20:41;18.50;64.90
3770;DHT22;1900;48.890;9.190;2023-04-29T07:23:08;18.50;64.80
3770;DHT22;1900;48.890;9.190;2023-04-29T07:25:34;18.60;64.70
3770;DHT22;1900;48.890;9.190;2023-04-29T07:28:00;18.60;64.70
3770;DHT22;1900;48.890;9.190;2023-04-29T07:30:26;18.60;64.80
3770;DHT22;1900;48.890;9.190;2023-04-29T07:32:52;18.70;64.80
3770;DHT22;1900;48.890;9.190;2023-04-29T07:35:18;18.70;64.60
3770;DHT22;1900;48.890;9.190;2023-04-29T07:37:44;18.70;64.60
3770;DHT22;1900;48.890;9.190;2023-04-29T07:40:10;18.70;64.70
3770;DHT22;1900;48.890;9.190;2023-04-29T07:42:37;18.70;64.80
3770;DHT22;1900;48.890;9.190;2023-04-29T07:45:04;18.80;64.90
3770;DHT22;1900;48.890;9.190;2023-04-29T07:47:30;18.80;64.60
3770;DHT22;1900;48.890;9.190;2023-04-29T07:49:56;18.80;64.40
3770;DHT22;1900;48.890;9.190;2023-04-29T07:52:22;18.80;64.40
3770;DHT22;1900;48.890;9.190;2023-04-29T07:54:48;18.80;64.30
3770;DHT22;1900;48.890;9.190;2023-04-29T07:57:14;18.70;64.10
3770;DHT22;1900;48.890;9.190;2023-04-29T07:59:40;18.70;64.30
3770;DHT22;1900;48.890;9.190;2023-04-29T08:02:06;18.70;64.10
3770;DHT22;1900;48.890;9.190;2023-04-29T08:04:31;18.70;64.10
3770;DHT22;1900;48.890;9.190;2023-04-29T08:07:03;18.70;64.20
3770;DHT22;1900;48.890;9.190;2023-04-29T08:09:29;18.70;64.30
3770;DHT22;1900;48.890;9.190;2023-04-29T08:11:54;18.80;64.50
3770;DHT22;1900;48.890;9.190;2023-04-29T08:14:20;18.70;64.50
3770;DHT22;1900;48.890;9.190;2023-04-29T08:16:46;18.70;64.30
3770;DHT22;1900;48.890;9.190;2023-04-29T08:19:12;18.70;64.20
3770;DHT22;1900;48.890;9.190;2023-04-29T08:21:37;18.70;64.10
3770;DHT22;1900;48.890;9.190;2023-04-29T08:24:03;18.70;64.10
3770;DHT22;1900;48.890;9.190;2023-04-29T08:26:30;18.70;64.10
3770;DHT22;1900;48.890;9.190;2023-04-29T08:28:56;18.70;64.20
3770;DHT22;1900;48.890;9.190;2023-04-29T08:31:21;18.70;64.40
3770;DHT22;1900;48.890;9.190;2023-04-29T08:33:47;18.70;64.40
3770;DHT22;1900;48.890;9.190;2023-04-29T08:36:13;18.70;64.50
3770;DHT22;1900;48.890;9.190;2023-04-29T08:38:40;18.70;64.60
3770;DHT22;1900;48.890;9.190;2023-04-29T08:41:09;18.70;64.50
3770;DHT22;1900;48.890;9.190;2023-04-29T08:43:35;18.70;64.50
3770;DHT22;1900;48.890;9.190;2023-04-29T08:46:02;18.70;64.50
3770;DHT22;1900;48.890;9.190;2023-04-29T08:48:29;18.80;64.60
3770;DHT22;1900;48.890;9.190;2023-04-29T08:50:55;18.80;64.70
3770;DHT22;1900;48.890;9.190;2023-04-29T08:53:23;18.80;64.80
3770;DHT22;1900;48.890;9.190;2023-04-29T08:55:49;18.90;65.00
3770;DHT22;1900;48.890;9.190;2023-04-29T08:58:15;18.90;64.90
3770;DHT22;1900;48.890;9.190;2023-04-29T09:00:42;18.90;64.90
3770;DHT22;1900;48.890;9.190;2023-04-29T09:03:24;19.00;65.00
3770;DHT22;1900;48.890;9.190;2023-04-29T09:05:55;19.00;65.00
3770;DHT22;1900;48.890;9.190;2023-04-29T09:08:23;19.00;65.00
3770;DHT22;1900;48.890;9.190;2023-04-29T09:10:50;19.00;65.00
3770;DHT22;1900;48.890;9.190;2023-04-29T09:15:49;19.10;65.10
3770;DHT22;1900;48.890;9.190;2023-04-29T09:18:41;19.10;65.80
3770;DHT22;1900;48.890;9.190;2023-04-29T09:21:14;19.20;65.30
3770;DHT22;1900;48.890;9.190;2023-04-29T09:23:40;19.20;65.30
3770;DHT22;1900;48.890;9.190;2023-04-29T09:26:05;19.20;65.10
3770;DHT22;1900;48.890;9.190;2023-04-29T09:28:31;19.30;65.00
3770;DHT22;1900;48.890;9.190;2023-04-29T09:30:56;19.30;64.90
3770;DHT22;1900;48.890;9.190;2023-04-29T09:33:22;19.30;64.90
3770;DHT22;1900;48.890;9.190;2023-04-29T09:35:50;19.30;64.90
3770;DHT22;1900;48.890;9.190;2023-04-29T09:38:16;19.30;65.10
3770;DHT22;1900;48.890;9.190;2023-04-29T09:40:42;19.40;65.30
3770;DHT22;1900;48.890;9.190;2023-04-29T09:43:16;19.40;65.10
3770;DHT22;1900;48.890;9.190;2023-04-29T09:45:45;19.40;64.90
3770;DHT22;1900;48.890;9.190;2023-04-29T09:48:12;19.40;65.00
3770;DHT22;1900;48.890;9.190;2023-04-29T09:50:40;19.40;65.10
3770;DHT22;1900;48.890;9.190;2023-04-29T09:53:07;19.40;65.10
3770;DHT22;1900;48.890;9.190;2023-04-29T09:58:31;19.50;65.50
3770;DHT22;1900;48.890;9.190;2023-04-29T10:01:05;19.50;65.20
3770;DHT22;1900;48.890;9.190;2023-04-29T10:03:36;19.50;65.20
3770;DHT22;1900;48.890;9.190;2023-04-29T10:06:03;19.50;65.30
3770;DHT22;1900;48.890;9.190;2023-04-29T10:08:30;19.60;65.40
3770;DHT22;1900;48.890;9.190;2023-04-29T10:10:59;19.60;65.40
3770;DHT22;1900;48.890;9.190;2023-04-29T10:13:26;19.60;65.30
3770;DHT22;1900;48.890;9.190;2023-04-29T10:16:12;19.70;65.40
3770;DHT22;1900;48.890;9.190;2023-04-29T10:18:40;19.70;65.40
3770;DHT22;1900;48.890;9.190;2023-04-29T10:21:10;19.70;65.30
3770;DHT22;1900;48.890;9.190;2023-04-29T10:23:36;19.70;65.10
3770;DHT22;1900;48.890;9.190;2023-04-29T10:26:03;19.70;64.80
3770;DHT22;1900;48.890;9.190;2023-04-29T10:28:31;19.70;64.60
3770;DHT22;1900;48.890;9.190;2023-04-29T10:31:00;19.70;64.70
3770;DHT22;1900;48.890;9.190;2023-04-29T10:33:30;19.70;64.80
3770;DHT22;1900;48.890;9.190;2023-04-29T10:35:58;19.70;65.00
3770;DHT22;1900;48.890;9.190;2023-04-29T10:38:38;19.70;65.10
3770;DHT22;1900;48.890;9.190;2023-04-29T10:41:26;19.80;65.20
3770;DHT22;1900;48.890;9.190;2023-04-29T10:43:54;19.80;65.00
3770;DHT22;1900;48.890;9.190;2023-04-29T10:46:22;19.80;65.10
3770;DHT22;1900;48.890;9.190;2023-04-29T10:49:04;19.80;64.70
3770;DHT22;1900;48.890;9.190;2023-04-29T10:51:43;19.80;64.70
3770;DHT22;1900;48.890;9.190;2023-04-29T10:54:14;19.80;64.90
3770;DHT22;1900;48.890;9.190;2023-04-29T10:56:47;19.90;65.10
3770;DHT22;1900;48.890;9.190;2023-04-29T10:59:17;19.90;65.30
3770;DHT22;1900;48.890;9.190;2023-04-29T11:01:45;20.00;65.50
3770;DHT22;1900;48.890;9.190;2023-04-29T11:04:11;20.00;65.60
3770;DHT22;1900;48.890;9.190;2023-04-29T11:06:38;20.10;65.80
3770;DHT22;1900;48.890;9.190;2023-04-29T11:11:59;20.20;65.70
3770;DHT22;1900;48.890;9.190;2023-04-29T11:14:33;20.20;65.50
3770;DHT22;1900;48.890;9.190;2023-04-29T11:17:03;20.30;65.30
3770;DHT22;1900;48.890;9.190;2023-04-29T11:19:55;20.30;65.40
3770;DHT22;1900;48.890;9.190;2023-04-29T11:25:07;20.30;65.50
3770;DHT22;1900;48.890;9.190;2023-04-29T11:27:38;20.40;65.60
3770;DHT22;1900;48.890;9.190;2023-04-29T11:30:05;20.40;65.80
3770;DHT22;1900;48.890;9.190;2023-04-29T11:32:34;20.50;66.10
3770;DHT22;1900;48.890;9.190;2023-04-29T11:35:11;20.60;66.30
3770;DHT22;1900;48.890;9.190;2023-04-29T11:37:38;20.70;66.30
3770;DHT22;1900;48.890;9.190;2023-04-29T11:40:04;20.80;66.30
3770;DHT22;1900;48.890;9.190;2023-04-29T11:42:54;20.90;66.60
3770;DHT22;1900;48.890;9.190;2023-04-29T11:45:19;21.00;66.60
3770;DHT22;1900;48.890;9.190;2023-04-29T11:47:46;21.10;66.60
3770;DHT22;1900;48.890;9.190;2023-04-29T11:50:13;21.10;66.10
3770;DHT22;1900;48.890;9.190;2023-04-29T11:52:41;21.20;66.40
3770;DHT22;1900;48.890;9.190;2023-04-29T11:55:10;21.30;66.50
3770;DHT22;1900;48.890;9.190;2023-04-29T11:57:37;21.30;66.50
3770;DHT22;1900;48.890;9.190;2023-04-29T12:00:03;21.40;66.40
3770;DHT22;1900;48.890;9.190;2023-04-29T12:02:33;21.40;65.90
3770;DHT22;1900;48.890;9.190;2023-04-29T12:05:04;21.50;65.80
3770;DHT22;1900;48.890;9.190;2023-04-29T12:07:30;21.50;65.60
3770;DHT22;1900;48.890;9.190;2023-04-29T12:09:55;21.50;65.40
3770;DHT22;1900;48.890;9.190;2023-04-29T12:12:22;21.50;65.10
3770;DHT22;1900;48.890;9.190;2023-04-29T12:14:49;21.40;64.90
3770;DHT22;1900;48.890;9.190;2023-04-29T12:17:15;21.40;65.00
3770;DHT22;1900;48.890;9.190;2023-04-29T12:19:42;21.40;65.00
3770;DHT22;1900;48.890;9.190;2023-04-29T12:22:08;21.40;65.10
3770;DHT22;1900;48.890;9.190;2023-04-29T12:24:38;21.40;64.90
3770;DHT22;1900;48.890;9.190;2023-04-29T12:27:08;21.40;64.90
3770;DHT22;1900;48.890;9.190;2023-04-29T12:29:35;21.40;64.60
3770;DHT22;1900;48.890;9.190;2023-04-29T12:32:01;21.30;64.50
3770;DHT22;1900;48.890;9.190;2023-04-29T12:34:28;21.30;64.30
3770;DHT22;1900;48.890;9.190;2023-04-29T12:36:58;21.30;64.50
3770;DHT22;1900;48.890;9.190;2023-04-29T12:39:25;21.30;64.20
3770;DHT22;1900;48.890;9.190;2023-04-29T12:41:57;21.20;63.70
3770;DHT22;1900;48.890;9.190;2023-04-29T12:44:23;21.20;64.20
3770;DHT22;1900;48.890;9.190;2023-04-29T12:46:49;21.10;63.60
3770;DHT22;1900;48.890;9.190;2023-04-29T12:49:17;21.10;63.90
3770;DHT22;1900;48.890;9.190;2023-04-29T12:51:43;21.10;63.90
3770;DHT22;1900;48.890;9.190;2023-04-29T12:54:09;21.10;63.90
3770;DHT22;1900;48.890;9.190;2023-04-29T12:56:37;21.00;63.90
3770;DHT22;1900;48.890;9.190;2023-04-29T12:59:07;21.00;64.00
3770;DHT22;1900;48.890;9.190;2023-04-29T13:01:34;21.00;64.30
3770;DHT22;1900;48.890;9.190;2023-04-29T13:04:00;21.00;64.40
3770;DHT22;1900;48.890;9.190;2023-04-29T13:06:26;21.10;64.50
3770;DHT22;1900;48.890;9.190;2023-04-29T13:08:51;21.00;63.90
3770;DHT22;1900;48.890;9.190;2023-04-29T13:11:17;21.00;63.60
3770;DHT22;1900;48.890;9.190;2023-04-29T13:13:43;21.00;63.20
3770;DHT22;1900;48.890;9.190;2023-04-29T13:16:09;20.90;63.10
3770;DHT22;1900;48.890;9.190;2023-04-29T13:18:35;20.90;63.80
3770;DHT22;1900;48.890;9.190;2023-04-29T13:21:01;20.80;62.70
3770;DHT22;1900;48.890;9.190;2023-04-29T13:23:27;20.80;62.60
3770;DHT22;1900;48.890;9.190;2023-04-29T13:25:53;20.70;62.50
3770;DHT22;1900;48.890;9.190;2023-04-29T13:28:18;20.70;62.60
3770;DHT22;1900;48.890;9.190;2023-04-29T13:30:44;20.60;62.40
3770;DHT22;1900;48.890;9.190;2023-04-29T13:33:10;20.50;62.50
3770;DHT22;1900;48.890;9.190;2023-04-29T13:35:36;20.50;62.80
3770;DHT22;1900;48.890;9.190;2023-04-29T13:38:03;20.50;63.10
3770;DHT22;1900;48.890;9.190;2023-04-29T13:40:29;20.50;63.00
3770;DHT22;1900;48.890;9.190;2023-04-29T13:42:55;20.50;63.20
3770;DHT22;1900;48.890;9.190;2023-04-29T13:45:20;20.50;63.40
3770;DHT22;1900;48.890;9.190;2023-04-29T13:47:46;20.60;63.80
3770;DHT22;1900;48.890;9.190;2023-04-29T13:50:12;20.60;63.70
3770;DHT22;1900;48.890;9.190;2023-04-29T13:52:38;20.70;63.60
3770;DHT22;1900;48.890;9.190;2023-04-29T13:55:04;20.70;63.40
3770;DHT22;1900;48.890;9.190;2023-04-29T13:57:29;20.70;63.20
3770;DHT22;1900;48.890;9.190;2023-04-29T13:59:55;20.70;63.30
3770;DHT22;1900;48.890;9.190;2023-04-29T14:02:21;20.70;63.60
3770;DHT22;1900;48.890;9.190;2023-04-29T14:04:46;20.70;63.50
3770;DHT22;1900;48.890;9.190;2023-04-29T14:07:12;20.80;63.50
3770;DHT22;1900;48.890;9.190;2023-04-29T14:09:39;20.80;63.60
3770;DHT22;1900;48.890;9.190;2023-04-29T14:12:05;20.80;63.70
3770;DHT22;1900;48.890;9.190;2023-04-29T14:14:31;20.80;63.40
3770;DHT22;1900;48.890;9.190;2023-04-29T14:16:57;20.80;63.20
3770;DHT22;1900;48.890;9.190;2023-04-29T14:19:22;20.80;62.90
3770;DHT22;1900;48.890;9.190;2023-04-29T14:21:48;20.80;62.60
3770;DHT22;1900;48.890;9.190;2023-04-29T14:24:14;20.80;62.60
3770;DHT22;1900;48.890;9.190;2023-04-29T14:26:40;20.80;62.70
3770;DHT22;1900;48.890;9.190;2023-04-29T14:29:06;20.80;62.80
3770;DHT22;1900;48.890;9.190;2023-04-29T14:31:35;20.80;63.00
3770;DHT22;1900;48.890;9.190;2023-04-29T14:34:04;20.80;63.00
3770;DHT22;1900;48.890;9.190;2023-04-29T14:36:31;20.80;62.70
3770;DHT22;1900;48.890;9.190;2023-04-29T14:38:58;20.80;62.90
3770;DHT22;1900;48.890;9.190;2023-04-29T14:41:23;20.80;62.90
3770;DHT22;1900;48.890;9.190;2023-04-29T14:43:50;20.90;63.20
3770;DHT22;1900;48.890;9.190;2023-04-29T14:46:16;20.90;63.30
3770;DHT22;1900;48.890;9.190;2023-04-29T14:48:41;20.90;63.40
3770;DHT22;1900;48.890;9.190;2023-04-29T14:51:07;20.90;63.40
3770;DHT22;1900;48.890;9.190;2023-04-29T14:53:33;21.00;63.30
3770;DHT22;1900;48.890;9.190;2023-04-29T14:55:59;21.00;63.10
3770;DHT22;1900;48.890;9.190;2023-04-29T14:58:25;21.00;63.10
3770;DHT22;1900;48.890;9.190;2023-04-29T15:00:51;21.00;63.10
3770;DHT22;1900;48.890;9.190;2023-04-29T15:03:17;20.90;62.80
3770;DHT22;1900;48.890;9.190;2023-04-29T15:05:43;20.90;62.70
3770;DHT22;1900;48.890;9.190;2023-04-29T15:08:09;20.90;62.80
3770;DHT22;1900;48.890;9.190;2023-04-29T15:10:35;20.90;62.70
3770;DHT22;1900;48.890;9.190;2023-04-29T15:13:01;20.90;62.70
3770;DHT22;1900;48.890;9.190;2023-04-29T15:15:27;20.90;62.40
3770;DHT22;1900;48.890;9.190;2023-04-29T15:17:53;20.80;62.10
3770;DHT22;1900;48.890;9.190;2023-04-29T15:20:19;20.80;62.20
3770;DHT22;1900;48.890;9.190;2023-04-29T15:22:45;20.80;62.50
3770;DHT22;1900;48.890;9.190;2023-04-29T15:25:11;20.80;62.60
3770;DHT22;1900;48.890;9.190;2023-04-29T15:27:37;20.70;62.50
3770;DHT22;1900;48.890;9.190;2023-04-29T15:30:04;20.70;62.50
3770;DHT22;1900;48.890;9.190;2023-04-29T15:32:30;20.80;62.50
3770;DHT22;1900;48.890;9.190;2023-04-29T15:35:00;20.70;62.30
3770;DHT22;1900;48.890;9.190;2023-04-29T15:37:26;20.70;62.30
3770;DHT22;1900;48.890;9.190;2023-04-29T15:39:53;20.70;62.30
3770;DHT22;1900;48.890;9.190;2023-04-29T15:42:18;20.60;62.30
3770;DHT22;1900;48.890;9.190;2023-04-29T15:44:44;20.60;62.80
3770;DHT22;1900;48.890;9.190;2023-04-29T15:47:10;20.60;61.90
3770;DHT22;1900;48.890;9.190;2023-04-29T15:49:36;20.60;62.00
3770;DHT22;1900;48.890;9.190;2023-04-29T15:52:02;20.50;62.00
3770;DHT22;1900;48.890;9.190;2023-04-29T15:54:28;20.50;62.30
3770;DHT22;1900;48.890;9.190;2023-04-29T15:56:55;20.50;62.30
3770;DHT22;1900;48.890;9.190;2023-04-29T15:59:21;20.50;62.30
3770;DHT22;1900;48.890;9.190;2023-04-29T16:01:46;20.50;62.10
3770;DHT22;1900;48.890;9.190;2023-04-29T16:04:12;20.50;62.00
3770;DHT22;1900;48.890;9.190;2023-04-29T16:06:37;20.40;61.90
3770;DHT22;1900;48.890;9.190;2023-04-29T16:09:03;20.40;61.90
3770;DHT22;1900;48.890;9.190;2023-04-29T16:11:30;20.40;62.00
3770;DHT22;1900;48.890;9.190;2023-04-29T16:13:57;20.40;62.10
3770;DHT22;1900;48.890;9.190;2023-04-29T16:16:22;20.30;62.10
3770;DHT22;1900;48.890;9.190;2023-04-29T16:18:49;20.30;62.20
3770;DHT22;1900;48.890;9.190;2023-04-29T16:21:15;20.40;62.40
3770;DHT22;1900;48.890;9.190;2023-04-29T16:23:42;20.30;62.40
3770;DHT22;1900;48.890;9.190;2023-04-29T16:26:08;20.40;62.50